Princeton/Rocky Hill (39N)
Princeton, NJ
Field Elevation: 128
Lat: 40°23.94N  Long: 74°39.54W
CTAF/Unicom Freq: 122.7250
   
     For Weather-by-Phone, call (609)-924-3901
Weather Advisories
11/1/2014 03:43 Z
Altimeter 29.84" Hg
Wind 040° @ 4 KT
Gusts --
Visibility 10 SM
Ceiling OVC018
Temperature 10° C (50° F)
Dewpoint 5° C (41° F)
Relative Humidity 72%
Density Altitude --
Condensation Altitude 2,600 feet
Wind Chill 9° C (48° F)
  Wind and Runways
Indicated Runway = 10
History
 
 
More Info
All DigiWx sites map
 
NOAA Forecast
 
Airport IQ 5010
(OCNJ) Ocean City
(PN44) Upper Gwynedd Heliport
 
about DigiWx
 
FAA Disclaimer: The data displayed is for advisory purposes only and is not to be used for flight planning or operations. For official data, please call (609)-924-3901 to hear the current automated AWOS voice message.
  METAR 39N 010343Z AUTO 04004KT 10SM OVC018 10/05 A2984